Time;durP1;ratioP1;P1;durP2;ratioP2;P2;SDS_P1;SDS_P2;PMS_P1;PMS_P2;Temp;Humidity;BMP_temperature;BMP_pressure;BME280_temperature;BME280_humidity;BME280_pressure;Samples;Min_cycle;Max_cycle;Signal;HPM_P1;HPM_P2
2023/03/02 00:01:51;;;;;;;37.58;24.33;;;3.30;99.90;;;;;;5089843;28;20205;-76
2023/03/02 00:04:22;;;;;;;35.45;22.63;;;3.40;99.90;;;;;;5093816;28;20229;-76
2023/03/02 00:06:55;;;;;;;39.40;23.58;;;3.40;99.90;;;;;;5091332;28;20268;-76
2023/03/02 00:09:22;;;;;;;42.17;24.40;;;3.40;99.90;;;;;;5085663;28;20559;-77
2023/03/02 00:11:51;;;;;;;38.33;25.33;;;3.40;99.90;;;;;;5094294;28;20226;-75
2023/03/02 00:14:18;;;;;;;35.75;23.67;;;3.40;99.90;;;;;;5095059;28;20292;-76
2023/03/02 00:16:45;;;;;;;41.30;26.63;;;3.40;99.90;;;;;;5084706;28;20262;-75
2023/03/02 00:19:12;;;;;;;48.42;25.23;;;3.40;99.90;;;;;;5094333;28;20206;-76
2023/03/02 00:21:40;;;;;;;37.03;23.52;;;3.40;99.90;;;;;;5092410;28;20302;-76
2023/03/02 00:24:09;;;;;;;44.70;26.02;;;3.40;99.90;;;;;;5079228;28;20209;-76
2023/03/02 00:26:36;;;;;;;42.60;25.73;;;3.40;99.90;;;;;;5090637;28;20316;-76
2023/03/02 00:29:04;;;;;;;40.67;24.60;;;3.30;99.90;;;;;;5095248;28;20194;-76
2023/03/02 00:31:31;;;;;;;44.00;28.55;;;3.40;99.90;;;;;;5093769;28;20206;-77
2023/03/02 00:33:58;;;;;;;46.05;26.13;;;3.40;99.90;;;;;;5093421;28;20270;-76
2023/03/02 00:36:25;;;;;;;46.03;27.23;;;3.40;99.90;;;;;;5081272;28;20219;-75
2023/03/02 00:38:53;;;;;;;42.28;26.23;;;3.40;99.90;;;;;;5090186;28;20387;-76
2023/03/02 00:41:22;;;;;;;49.13;27.45;;;3.40;99.90;;;;;;5088217;28;20277;-75
2023/03/02 00:43:55;;;;;;;42.85;27.15;;;3.30;99.90;;;;;;5092451;28;20248;-75
2023/03/02 00:46:23;;;;;;;48.65;26.80;;;3.30;99.90;;;;;;5090384;28;20225;-75
2023/03/02 00:48:52;;;;;;;48.83;28.65;;;3.40;99.90;;;;;;5093076;28;20259;-75
2023/03/02 00:51:19;;;;;;;49.22;29.10;;;3.40;99.90;;;;;;5082222;28;20729;-76
2023/03/02 00:53:46;;;;;;;47.55;27.95;;;3.20;99.90;;;;;;5090085;28;20214;-75
2023/03/02 00:56:13;;;;;;;42.42;27.40;;;3.20;99.90;;;;;;5087702;28;20191;-76
2023/03/02 00:58:41;;;;;;;42.75;27.42;;;3.20;99.90;;;;;;5084305;28;20281;-75
2023/03/02 01:01:11;;;;;;;50.22;25.00;;;3.10;99.90;;;;;;5087548;28;20213;-76
2023/03/02 01:03:39;;;;;;;45.83;25.27;;;3.00;99.90;;;;;;5088140;28;20190;-76
2023/03/02 01:06:13;;;;;;;57.50;28.25;;;3.00;99.90;;;;;;5082923;28;20229;-76
2023/03/02 01:08:40;;;;;;;47.63;29.58;;;3.00;99.90;;;;;;5072818;28;20210;-77
2023/03/02 01:11:13;;;;;;;52.95;28.38;;;3.00;99.90;;;;;;5077714;28;20255;-77
2023/03/02 01:13:41;;;;;;;53.70;27.98;;;3.00;99.90;;;;;;5083573;28;20217;-76
2023/03/02 01:16:10;;;;;;;51.20;27.80;;;2.90;99.90;;;;;;5081915;28;20284;-77
2023/03/02 01:18:37;;;;;;;64.72;30.48;;;2.80;99.90;;;;;;5092100;28;20200;-76
2023/03/02 01:21:06;;;;;;;51.42;30.23;;;2.70;99.90;;;;;;5085074;28;20218;-76
2023/03/02 01:23:33;;;;;;;51.67;29.60;;;2.70;99.90;;;;;;5086449;28;20537;-77
2023/03/02 01:25:59;;;;;;;46.03;25.70;;;2.70;99.90;;;;;;5093614;28;20294;-76
2023/03/02 01:28:27;;;;;;;46.20;28.55;;;2.80;99.90;;;;;;5086100;28;20202;-76
2023/03/02 01:30:55;;;;;;;48.53;27.63;;;2.90;99.90;;;;;;5078723;28;20203;-76
2023/03/02 01:33:22;;;;;;;54.47;29.63;;;2.80;99.90;;;;;;5085050;28;20756;-76
2023/03/02 01:35:49;;;;;;;36.70;25.33;;;2.80;99.90;;;;;;5079225;28;20207;-76
2023/03/02 01:38:16;;;;;;;39.88;26.50;;;2.90;99.90;;;;;;5078757;28;20680;-76
2023/03/02 01:40:43;;;;;;;47.17;26.75;;;2.90;99.90;;;;;;5082661;28;20197;-76
2023/03/02 01:43:13;;;;;;;63.58;29.48;;;2.90;99.90;;;;;;5079134;28;20191;-76
2023/03/02 01:45:51;;;;;;;51.80;27.95;;;2.90;99.90;;;;;;5080881;28;20306;-76
2023/03/02 01:48:25;;;;;;;43.35;25.75;;;2.70;99.90;;;;;;5077130;28;20771;-75
2023/03/02 01:50:53;;;;;;;58.05;27.38;;;2.60;99.90;;;;;;5059720;28;20205;-75
2023/03/02 01:53:25;;;;;;;48.47;26.95;;;2.60;99.90;;;;;;5078116;28;20230;-76
2023/03/02 01:55:53;;;;;;;47.10;27.55;;;2.60;99.90;;;;;;5077624;28;20203;-76
2023/03/02 01:58:21;;;;;;;46.88;27.45;;;2.50;99.90;;;;;;5088905;28;20758;-76
2023/03/02 02:00:49;;;;;;;47.13;25.05;;;2.50;99.90;;;;;;5076805;28;20203;-75
2023/03/02 02:03:20;;;;;;;48.25;26.10;;;2.50;99.90;;;;;;5083027;28;20195;-76
2023/03/02 02:05:58;;;;;;;65.07;28.05;;;2.40;99.90;;;;;;5087954;28;20198;-75
2023/03/02 02:08:26;;;;;;;47.60;27.30;;;2.30;99.90;;;;;;5080735;28;20575;-76
2023/03/02 02:10:54;;;;;;;41.40;27.33;;;2.30;99.90;;;;;;5075716;28;20301;-76
2023/03/02 02:13:21;;;;;;;46.08;24.35;;;2.40;99.90;;;;;;5082845;28;20302;-76
2023/03/02 02:15:48;;;;;;;63.92;26.60;;;2.40;99.90;;;;;;5085184;28;20203;-76
2023/03/02 02:18:15;;;;;;;71.97;27.38;;;2.40;99.90;;;;;;5077729;28;20280;-76
2023/03/02 02:20:44;;;;;;;56.92;24.92;;;2.30;99.90;;;;;;5079743;28;20234;-76
2023/03/02 02:23:25;;;;;;;57.65;25.70;;;2.20;99.90;;;;;;5089287;28;20333;-76
2023/03/02 02:26:11;;;;;;;41.03;24.00;;;2.00;99.90;;;;;;5099034;28;20202;-76
2023/03/02 02:28:42;;;;;;;50.05;25.13;;;2.00;99.90;;;;;;5085287;28;20202;-76
2023/03/02 02:31:15;;;;;;;47.33;26.58;;;2.00;99.90;;;;;;5088144;28;20288;-76
2023/03/02 02:33:45;;;;;;;39.33;23.75;;;2.00;99.90;;;;;;5092772;28;20289;-76
2023/03/02 02:36:17;;;;;;;36.88;22.90;;;2.10;99.90;;;;;;5088011;28;20285;-77
2023/03/02 02:38:48;;;;;;;46.00;25.55;;;2.20;99.90;;;;;;5087928;28;20285;-77
2023/03/02 02:41:21;;;;;;;48.75;27.38;;;2.30;99.90;;;;;;5086299;28;20240;-76
2023/03/02 02:43:48;;;;;;;43.97;24.92;;;2.40;99.90;;;;;;5081955;28;20638;-77
2023/03/02 02:46:15;;;;;;;43.88;27.42;;;2.40;99.90;;;;;;5084981;28;20210;-76
2023/03/02 02:48:43;;;;;;;40.08;25.48;;;2.40;99.90;;;;;;5087788;28;20210;-75
2023/03/02 02:51:17;;;;;;;41.58;23.95;;;2.40;99.90;;;;;;5091602;28;20221;-75
2023/03/02 02:53:49;;;;;;;43.95;25.92;;;2.50;99.90;;;;;;5088992;28;20293;-76
2023/03/02 02:56:19;;;;;;;42.63;25.77;;;2.50;99.90;;;;;;5080520;28;20318;-76
2023/03/02 02:58:48;;;;;;;42.13;23.92;;;2.50;99.90;;;;;;5087262;28;20301;-76
2023/03/02 03:01:18;;;;;;;39.28;24.58;;;2.30;99.90;;;;;;5088011;28;20270;-76
2023/03/02 03:03:51;;;;;;;43.15;22.73;;;2.50;99.90;;;;;;5093395;28;20290;-76
2023/03/02 03:06:24;;;;;;;37.08;23.50;;;2.50;99.90;;;;;;5088711;28;20219;-77
2023/03/02 03:08:55;;;;;;;36.13;22.00;;;2.50;99.90;;;;;;5084840;28;20209;-76
2023/03/02 03:11:25;;;;;;;42.35;26.02;;;2.50;99.90;;;;;;5094243;28;20217;-75
2023/03/02 03:13:58;;;;;;;42.63;26.25;;;2.50;99.90;;;;;;5087908;28;20248;-75
2023/03/02 03:16:28;;;;;;;41.55;23.92;;;2.40;99.90;;;;;;5082716;28;20305;-76
2023/03/02 03:18:57;;;;;;;38.20;23.00;;;2.40;99.90;;;;;;5077610;28;20202;-75
2023/03/02 03:21:24;;;;;;;37.60;23.55;;;2.40;99.90;;;;;;5081536;28;20209;-76
2023/03/02 03:23:51;;;;;;;43.17;26.10;;;2.50;99.90;;;;;;5077748;28;20271;-75
2023/03/02 03:26:18;;;;;;;35.45;22.02;;;2.50;99.90;;;;;;5081336;28;20249;-76
2023/03/02 03:28:47;;;;;;;35.90;22.67;;;2.50;99.90;;;;;;5084379;28;20211;-76
2023/03/02 03:31:15;;;;;;;35.58;22.08;;;2.50;99.90;;;;;;5092245;28;20209;-75
2023/03/02 03:33:42;;;;;;;35.55;21.17;;;2.50;99.90;;;;;;5094208;28;20216;-76
2023/03/02 03:36:09;;;;;;;36.53;22.98;;;2.60;99.90;;;;;;5094309;28;20297;-76
2023/03/02 03:38:41;;;;;;;33.58;22.90;;;2.60;99.90;;;;;;5088649;28;20221;-76
2023/03/02 03:41:08;;;;;;;42.72;24.65;;;2.50;99.90;;;;;;5085002;28;20234;-75
2023/03/02 03:43:35;;;;;;;35.80;21.88;;;2.50;99.90;;;;;;5084502;28;20223;-76
2023/03/02 03:46:04;;;;;;;45.22;23.50;;;2.50;99.90;;;;;;5092447;28;20222;-76
2023/03/02 03:48:31;;;;;;;45.38;23.13;;;2.50;99.90;;;;;;5087554;28;20217;-76
2023/03/02 03:50:59;;;;;;;39.08;22.35;;;2.50;99.90;;;;;;5093492;28;20194;-75
2023/03/02 03:53:26;;;;;;;40.40;23.27;;;2.40;99.90;;;;;;5092375;28;20222;-75
2023/03/02 03:55:53;;;;;;;44.08;25.27;;;2.40;99.90;;;;;;5088962;28;20194;-76
2023/03/02 03:58:20;;;;;;;37.13;21.17;;;2.30;99.90;;;;;;5091814;28;20258;-75
2023/03/02 04:00:47;;;;;;;37.15;21.92;;;2.40;99.90;;;;;;5094776;28;20669;-75
2023/03/02 04:03:15;;;;;;;38.10;23.52;;;2.30;99.90;;;;;;5096136;28;20716;-75
2023/03/02 04:05:42;;;;;;;52.08;23.65;;;2.30;99.90;;;;;;5094705;28;20616;-75
2023/03/02 04:08:09;;;;;;;40.92;23.02;;;2.20;99.90;;;;;;5094743;28;20257;-75
2023/03/02 04:10:36;;;;;;;46.03;24.25;;;2.20;99.90;;;;;;5095121;28;20199;-75
2023/03/02 04:13:04;;;;;;;40.70;24.58;;;2.10;99.90;;;;;;5102851;28;20237;-75
2023/03/02 04:15:32;;;;;;;52.17;26.30;;;2.10;99.90;;;;;;5093310;28;20251;-75
2023/03/02 04:17:59;;;;;;;93.95;23.88;;;2.10;99.90;;;;;;5095981;28;20218;-76
2023/03/02 04:20:29;;;;;;;43.72;23.92;;;2.00;99.90;;;;;;5097245;28;20206;-75
2023/03/02 04:22:58;;;;;;;46.10;21.20;;;1.90;99.90;;;;;;5100727;28;20194;-76
2023/03/02 04:25:27;;;;;;;43.42;22.45;;;1.80;99.90;;;;;;5104939;28;20194;-75
2023/03/02 04:27:55;;;;;;;54.60;23.30;;;1.80;99.90;;;;;;5101043;28;20255;-75
2023/03/02 04:30:25;;;;;;;49.10;23.95;;;1.80;99.90;;;;;;5086724;28;20231;-75
2023/03/02 04:32:52;;;;;;;80.63;25.30;;;1.90;99.90;;;;;;5093814;28;20201;-76
2023/03/02 04:35:19;;;;;;;47.30;23.33;;;1.90;99.90;;;;;;5080722;28;20315;-75
2023/03/02 04:37:47;;;;;;;38.58;21.60;;;1.90;99.90;;;;;;5091057;28;20222;-76
2023/03/02 04:40:16;;;;;;;61.75;23.35;;;1.90;99.90;;;;;;5093248;28;20230;-76
2023/03/02 04:42:44;;;;;;;44.03;22.48;;;2.00;99.90;;;;;;5083578;28;20274;-75
2023/03/02 04:45:12;;;;;;;47.10;21.83;;;2.00;99.90;;;;;;5084891;28;20190;-76
2023/03/02 04:47:42;;;;;;;43.50;22.40;;;2.00;99.90;;;;;;5093686;28;20584;-76
2023/03/02 04:50:12;;;;;;;32.70;21.13;;;1.90;99.90;;;;;;5076874;28;20237;-75
2023/03/02 04:52:39;;;;;;;38.42;20.50;;;1.90;99.90;;;;;;5083494;28;20233;-76
2023/03/02 04:55:09;;;;;;;39.47;22.00;;;2.00;99.90;;;;;;5094043;28;20240;-76
2023/03/02 04:57:37;;;;;;;38.08;21.25;;;2.10;99.90;;;;;;5092084;28;20301;-75
2023/03/02 05:00:08;;;;;;;54.67;24.33;;;2.20;99.90;;;;;;5087104;28;20281;-75
2023/03/02 05:02:37;;;;;;;46.22;24.85;;;2.30;99.90;;;;;;5089424;28;20237;-76
2023/03/02 05:05:05;;;;;;;45.03;23.38;;;2.20;99.90;;;;;;5095034;28;20285;-76
2023/03/02 05:07:32;;;;;;;36.60;19.90;;;2.20;99.90;;;;;;5083459;28;20313;-76
2023/03/02 05:09:59;;;;;;;53.10;20.60;;;2.20;99.90;;;;;;5080776;28;20294;-76
2023/03/02 05:12:27;;;;;;;44.97;21.83;;;2.20;99.90;;;;;;5079075;28;20289;-76
2023/03/02 05:14:54;;;;;;;52.33;23.45;;;2.20;99.90;;;;;;5080926;28;20216;-76
2023/03/02 05:17:21;;;;;;;39.88;22.10;;;2.20;99.90;;;;;;5088407;28;20222;-76
2023/03/02 05:19:48;;;;;;;39.55;21.25;;;2.20;99.90;;;;;;5084227;28;20215;-76
2023/03/02 05:22:16;;;;;;;42.22;22.23;;;2.20;99.90;;;;;;5090161;28;20201;-75
2023/03/02 05:24:43;;;;;;;41.35;22.45;;;2.20;99.90;;;;;;5080547;28;20733;-76
2023/03/02 05:27:10;;;;;;;47.35;23.95;;;2.10;99.90;;;;;;5090310;28;20274;-76
2023/03/02 05:29:38;;;;;;;38.22;22.10;;;2.10;99.90;;;;;;5092354;28;20212;-76
2023/03/02 05:32:06;;;;;;;48.92;23.45;;;2.20;99.90;;;;;;5086054;28;20313;-75
2023/03/02 05:34:33;;;;;;;41.80;22.23;;;2.10;99.90;;;;;;5085346;28;20301;-76
2023/03/02 05:37:01;;;;;;;48.55;22.60;;;2.20;99.90;;;;;;5086299;28;20615;-75
2023/03/02 05:39:28;;;;;;;46.55;23.15;;;2.30;99.90;;;;;;5087447;28;20234;-75
2023/03/02 05:41:55;;;;;;;41.92;21.25;;;2.30;99.90;;;;;;5085120;28;20661;-76
2023/03/02 05:44:22;;;;;;;39.58;22.00;;;2.40;99.90;;;;;;5089548;28;20230;-76
2023/03/02 05:46:50;;;;;;;39.80;22.73;;;2.50;99.90;;;;;;5091835;28;20282;-77
2023/03/02 05:49:17;;;;;;;32.67;19.83;;;2.60;99.90;;;;;;5089582;28;20209;-76
2023/03/02 05:51:46;;;;;;;39.33;20.00;;;2.60;99.90;;;;;;5083200;28;20228;-76
2023/03/02 05:54:14;;;;;;;41.65;20.35;;;2.60;99.90;;;;;;5087945;28;20322;-76
2023/03/02 05:56:42;;;;;;;33.70;19.85;;;2.60;99.90;;;;;;5084092;28;20709;-75
2023/03/02 05:59:08;;;;;;;33.03;19.23;;;2.70;99.90;;;;;;5080364;28;20203;-76
2023/03/02 06:01:37;;;;;;;36.03;19.42;;;2.70;99.90;;;;;;5083070;28;20314;-75
2023/03/02 06:04:06;;;;;;;33.70;18.35;;;2.70;99.90;;;;;;5082658;28;20202;-75
2023/03/02 06:06:33;;;;;;;40.13;19.90;;;2.70;99.90;;;;;;5079830;28;20224;-76
2023/03/02 06:09:00;;;;;;;35.53;20.13;;;2.70;99.90;;;;;;5084940;28;20297;-76
2023/03/02 06:11:29;;;;;;;36.00;20.17;;;2.70;99.90;;;;;;5088918;28;20297;-75
2023/03/02 06:13:55;;;;;;;35.55;18.27;;;2.80;99.90;;;;;;5088783;28;20213;-77
2023/03/02 06:16:22;;;;;;;39.75;21.33;;;2.70;99.90;;;;;;5079269;28;20772;-76
2023/03/02 06:18:50;;;;;;;33.92;19.90;;;2.80;99.90;;;;;;5087569;28;20206;-77
2023/03/02 06:21:18;;;;;;;37.00;21.77;;;2.80;99.90;;;;;;5083513;28;20210;-76
2023/03/02 06:23:47;;;;;;;46.33;20.60;;;2.70;99.90;;;;;;5093369;28;20203;-77
2023/03/02 06:26:14;;;;;;;42.25;20.60;;;2.70;99.90;;;;;;5084603;28;20198;-77
2023/03/02 06:28:42;;;;;;;42.55;21.83;;;2.60;99.90;;;;;;5088435;28;20210;-76
2023/03/02 06:31:09;;;;;;;46.97;23.27;;;2.50;99.90;;;;;;5087751;28;20293;-74
2023/03/02 06:33:36;;;;;;;43.80;22.42;;;2.50;99.90;;;;;;5090301;28;20285;-74
2023/03/02 06:36:03;;;;;;;34.88;19.33;;;2.50;99.90;;;;;;5089053;28;20577;-75
2023/03/02 06:38:32;;;;;;;39.33;22.30;;;2.60;99.90;;;;;;5094185;28;20206;-74
2023/03/02 06:40:59;;;;;;;42.58;21.13;;;2.60;99.90;;;;;;5095302;28;20268;-74
2023/03/02 06:43:26;;;;;;;43.25;21.70;;;2.60;99.90;;;;;;5093952;28;20230;-74
2023/03/02 06:45:53;;;;;;;34.83;20.52;;;2.50;99.90;;;;;;5096065;28;20207;-76
2023/03/02 06:48:20;;;;;;;39.05;19.38;;;2.40;99.90;;;;;;5096389;28;20691;-76
2023/03/02 06:50:47;;;;;;;41.83;22.15;;;2.50;99.90;;;;;;5087077;28;20285;-76
2023/03/02 06:53:16;;;;;;;54.38;24.50;;;2.50;99.90;;;;;;5094795;28;20199;-75
2023/03/02 06:55:47;;;;;;;41.40;22.30;;;2.40;99.90;;;;;;5086660;28;20538;-76
2023/03/02 06:58:14;;;;;;;46.38;22.63;;;2.50;99.90;;;;;;5100129;28;20656;-77
2023/03/02 07:00:41;;;;;;;36.97;20.50;;;2.40;99.90;;;;;;5089652;28;20209;-77
2023/03/02 07:03:08;;;;;;;58.95;32.33;;;2.50;99.90;;;;;;5086764;28;20202;-76
2023/03/02 07:05:35;;;;;;;46.22;23.45;;;2.60;99.90;;;;;;5099205;28;20306;-76
2023/03/02 07:08:03;;;;;;;36.28;18.95;;;2.60;99.90;;;;;;5096828;28;20290;-75
2023/03/02 07:10:30;;;;;;;35.83;19.15;;;2.70;99.90;;;;;;5097395;28;20222;-76
2023/03/02 07:12:58;;;;;;;40.33;21.77;;;2.60;99.90;;;;;;5098894;28;20238;-77
2023/03/02 07:15:25;;;;;;;39.20;21.27;;;2.70;99.90;;;;;;5098314;28;20214;-76
2023/03/02 07:17:52;;;;;;;39.88;21.58;;;2.80;99.90;;;;;;5099057;28;20261;-74
2023/03/02 07:20:19;;;;;;;35.30;18.98;;;2.90;99.90;;;;;;5098275;28;20273;-75
2023/03/02 07:22:46;;;;;;;29.77;17.30;;;2.80;99.90;;;;;;5098818;28;20225;-75
2023/03/02 07:25:14;;;;;;;44.05;21.10;;;2.90;99.90;;;;;;5086162;28;20199;-74
2023/03/02 07:27:42;;;;;;;32.17;19.40;;;2.90;99.90;;;;;;5093881;28;20305;-76
2023/03/02 07:30:13;;;;;;;38.97;20.65;;;3.00;99.90;;;;;;5079161;28;20199;-75
2023/03/02 07:32:40;;;;;;;39.40;18.80;;;3.00;99.90;;;;;;5095899;28;20249;-76
2023/03/02 07:35:08;;;;;;;36.00;19.38;;;2.90;99.90;;;;;;5091827;28;20249;-74
2023/03/02 07:37:35;;;;;;;26.95;16.02;;;2.90;99.90;;;;;;5098522;28;20275;-75
2023/03/02 07:40:02;;;;;;;35.22;20.20;;;3.00;99.90;;;;;;5088236;28;20225;-77
2023/03/02 07:42:30;;;;;;;35.17;21.58;;;3.00;99.90;;;;;;5083195;28;20712;-75
2023/03/02 07:44:57;;;;;;;35.63;19.88;;;3.10;99.90;;;;;;5094666;28;20262;-78
2023/03/02 07:47:25;;;;;;;33.00;17.77;;;3.10;99.90;;;;;;5087095;28;20331;-75
2023/03/02 07:49:52;;;;;;;32.15;18.58;;;3.10;99.90;;;;;;5082486;28;20272;-75
2023/03/02 07:52:19;;;;;;;38.30;19.15;;;3.10;99.90;;;;;;5089246;28;20234;-75
2023/03/02 07:54:46;;;;;;;35.28;17.23;;;3.20;99.90;;;;;;5087626;28;20578;-74
2023/03/02 07:57:15;;;;;;;39.22;17.15;;;3.20;99.90;;;;;;5082462;28;20708;-75
2023/03/02 07:59:42;;;;;;;36.53;18.35;;;2.90;99.90;;;;;;5088716;28;20217;-74
2023/03/02 08:02:12;;;;;;;31.73;17.85;;;2.90;99.90;;;;;;5091401;28;20289;-76
2023/03/02 08:04:40;;;;;;;41.25;18.83;;;3.00;99.90;;;;;;5089157;28;20233;-77
2023/03/02 08:07:08;;;;;;;37.50;17.80;;;3.10;99.90;;;;;;5090547;28;20279;-73
2023/03/02 08:09:35;;;;;;;33.60;17.38;;;3.10;99.90;;;;;;5091980;28;20281;-75
2023/03/02 08:12:02;;;;;;;31.02;18.02;;;3.10;99.90;;;;;;5090440;28;20289;-77
2023/03/02 08:14:29;;;;;;;31.17;18.25;;;3.20;99.90;;;;;;5088228;28;20220;-74
2023/03/02 08:16:57;;;;;;;30.77;18.77;;;3.30;99.90;;;;;;5087015;28;20237;-75
2023/03/02 08:19:25;;;;;;;29.30;15.88;;;3.40;99.90;;;;;;5081742;28;20226;-76
2023/03/02 08:21:53;;;;;;;32.55;16.73;;;3.40;99.90;;;;;;5090366;28;20214;-76
2023/03/02 08:24:21;;;;;;;31.85;16.75;;;3.60;99.90;;;;;;5089048;28;20230;-75
2023/03/02 08:26:48;;;;;;;37.85;17.83;;;3.60;99.90;;;;;;5093162;28;20251;-78
2023/03/02 08:29:15;;;;;;;32.30;17.27;;;3.70;99.90;;;;;;5095568;28;20204;-75
2023/03/02 08:31:42;;;;;;;28.23;16.13;;;3.70;99.90;;;;;;5091419;28;20213;-75
2023/03/02 08:34:09;;;;;;;30.10;18.73;;;3.70;99.90;;;;;;5095486;28;20204;-77
2023/03/02 08:36:36;;;;;;;29.50;17.95;;;3.80;99.90;;;;;;5098248;28;20236;-75
2023/03/02 08:39:06;;;;;;;31.63;16.27;;;3.70;99.90;;;;;;5091395;28;20202;-75
2023/03/02 08:41:34;;;;;;;33.95;19.23;;;3.80;99.90;;;;;;5087876;28;20227;-75
2023/03/02 08:44:02;;;;;;;26.98;16.65;;;3.80;99.90;;;;;;5088769;28;20201;-75
2023/03/02 08:46:29;;;;;;;26.50;15.20;;;3.90;99.90;;;;;;5097971;28;20221;-77
2023/03/02 08:48:56;;;;;;;31.85;17.80;;;3.80;99.90;;;;;;5088036;28;20263;-75
2023/03/02 08:51:25;;;;;;;27.65;14.75;;;3.70;99.90;;;;;;5085581;28;20237;-75
2023/03/02 08:53:55;;;;;;;31.98;18.08;;;3.80;99.90;;;;;;5083504;28;20290;-76
2023/03/02 08:56:25;;;;;;;31.45;16.52;;;3.80;99.90;;;;;;5092553;28;20218;-76
2023/03/02 08:58:53;;;;;;;37.33;16.08;;;3.90;99.90;;;;;;5086619;28;20729;-76
2023/03/02 09:01:23;;;;;;;25.17;14.60;;;4.00;99.90;;;;;;5083167;28;20249;-77
2023/03/02 09:03:50;;;;;;;30.23;16.58;;;4.00;99.90;;;;;;5088107;28;20720;-77
2023/03/02 09:06:17;;;;;;;25.88;14.65;;;4.00;99.90;;;;;;5085791;28;20261;-76
2023/03/02 09:08:45;;;;;;;25.48;14.73;;;4.10;99.90;;;;;;5085619;28;20201;-76
2023/03/02 09:11:12;;;;;;;28.10;17.15;;;4.10;99.90;;;;;;5086784;28;20244;-76
2023/03/02 09:13:40;;;;;;;28.10;16.13;;;4.20;99.90;;;;;;5082186;28;20296;-75
2023/03/02 09:16:08;;;;;;;30.80;16.25;;;4.20;99.90;;;;;;5081642;28;20305;-75
2023/03/02 09:18:36;;;;;;;32.17;16.75;;;4.00;99.90;;;;;;5091564;28;20724;-76
2023/03/02 09:21:03;;;;;;;35.28;16.75;;;3.80;99.90;;;;;;5092886;28;20226;-76
2023/03/02 09:23:31;;;;;;;27.95;16.60;;;3.80;99.90;;;;;;5091992;28;20289;-75
2023/03/02 09:25:58;;;;;;;28.88;17.30;;;3.90;99.90;;;;;;5085847;28;20227;-75
2023/03/02 09:28:25;;;;;;;26.55;15.73;;;4.10;99.90;;;;;;5084464;28;20221;-77
2023/03/02 09:30:57;;;;;;;28.67;16.42;;;4.20;99.90;;;;;;5092207;28;20210;-76
2023/03/02 09:33:32;;;;;;;36.63;19.02;;;4.30;99.90;;;;;;5082444;28;20585;-77
2023/03/02 09:36:00;;;;;;;25.92;16.00;;;4.30;99.90;;;;;;5082896;28;20278;-76
2023/03/02 09:38:28;;;;;;;30.00;16.25;;;4.30;99.90;;;;;;5084287;28;20214;-77
2023/03/02 09:41:18;;;;;;;31.08;16.77;;;4.30;99.90;;;;;;5078334;28;20199;-74
2023/03/02 09:43:53;;;;;;;28.38;17.27;;;4.30;99.90;;;;;;5081554;28;20220;-73
2023/03/02 09:46:26;;;;;;;27.63;16.48;;;4.20;99.90;;;;;;5082836;28;20303;-76
2023/03/02 09:49:05;;;;;;;29.30;17.00;;;4.20;99.90;;;;;;5088073;28;20209;-74
2023/03/02 09:51:39;;;;;;;33.70;17.33;;;4.20;99.90;;;;;;5085118;28;20195;-78
2023/03/02 09:54:11;;;;;;;30.48;16.75;;;4.20;99.90;;;;;;5079249;28;20603;-76
2023/03/02 09:56:43;;;;;;;25.02;13.82;;;4.10;99.90;;;;;;5091829;28;20222;-77
2023/03/02 09:59:19;;;;;;;28.95;16.45;;;4.20;99.90;;;;;;5095140;28;20600;-77
2023/03/02 10:01:53;;;;;;;26.20;15.20;;;4.40;99.90;;;;;;5090370;28;20225;-76
2023/03/02 10:04:24;;;;;;;32.63;16.45;;;4.50;99.90;;;;;;5091282;28;20242;-77
2023/03/02 10:06:56;;;;;;;27.15;16.10;;;4.50;99.90;;;;;;5085064;28;20225;-75
2023/03/02 10:09:23;;;;;;;35.03;18.08;;;4.50;99.90;;;;;;5081068;28;20296;-77
2023/03/02 10:12:07;;;;;;;35.22;17.58;;;4.60;99.90;;;;;;5092344;28;20652;-77
2023/03/02 10:14:39;;;;;;;28.13;16.63;;;4.60;99.90;;;;;;5089409;28;20217;-76
2023/03/02 10:17:29;;;;;;;32.33;17.63;;;4.70;99.90;;;;;;5088962;28;20230;-78
2023/03/02 10:20:01;;;;;;;25.10;16.35;;;4.70;99.90;;;;;;5087018;28;20214;-78
2023/03/02 10:22:31;;;;;;;37.22;19.65;;;4.80;99.90;;;;;;5086259;28;20672;-78
2023/03/02 10:25:16;;;;;;;35.38;18.55;;;4.90;99.90;;;;;;5082943;28;20234;-77
2023/03/02 10:27:50;;;;;;;29.63;17.15;;;4.90;99.90;;;;;;5073269;28;20479;-76
2023/03/02 10:30:24;;;;;;;27.02;16.27;;;5.00;99.90;;;;;;5063034;28;20281;-76
2023/03/02 10:32:54;;;;;;;23.83;15.05;;;5.10;99.90;;;;;;5088697;28;20224;-76
2023/03/02 10:35:24;;;;;;;27.17;15.80;;;5.10;99.90;;;;;;5081199;28;20733;-75
2023/03/02 10:37:55;;;;;;;29.83;16.35;;;5.00;99.90;;;;;;5078086;28;20333;-75
2023/03/02 10:40:37;;;;;;;38.65;19.25;;;5.10;99.90;;;;;;5081366;28;20197;-78
2023/03/02 10:43:06;;;;;;;26.50;15.38;;;5.10;99.90;;;;;;5081819;28;20873;-77
2023/03/02 10:45:33;;;;;;;36.13;17.45;;;5.20;99.90;;;;;;5079341;28;20649;-78
2023/03/02 10:48:03;;;;;;;25.20;14.93;;;5.10;99.90;;;;;;5077184;28;20291;-77
2023/03/02 10:50:31;;;;;;;29.80;17.38;;;5.00;99.90;;;;;;5074860;28;20629;-76
2023/03/02 10:52:58;;;;;;;27.65;15.55;;;5.00;99.90;;;;;;5077185;28;20194;-75
2023/03/02 10:55:25;;;;;;;32.80;18.05;;;5.00;99.90;;;;;;5088293;28;20305;-76
2023/03/02 10:58:04;;;;;;;27.08;16.70;;;5.10;99.90;;;;;;5082338;28;20240;-77
2023/03/02 11:00:32;;;;;;;29.88;16.67;;;5.10;99.90;;;;;;5084387;28;20289;-78
2023/03/02 11:03:22;;;;;;;28.38;16.38;;;5.10;99.90;;;;;;5087976;28;20872;-77
2023/03/02 11:05:49;;;;;;;30.25;15.68;;;5.20;99.90;;;;;;5091950;28;20261;-77
2023/03/02 11:08:19;;;;;;;26.20;16.25;;;5.30;99.90;;;;;;5091229;28;20268;-77
2023/03/02 11:10:53;;;;;;;29.58;17.23;;;5.40;99.90;;;;;;5083777;28;20304;-77
2023/03/02 11:13:25;;;;;;;33.38;16.70;;;5.50;99.90;;;;;;5093610;28;20566;-78
2023/03/02 11:15:55;;;;;;;31.50;17.15;;;5.50;99.90;;;;;;5090855;28;20210;-76
2023/03/02 11:18:28;;;;;;;25.10;13.85;;;5.60;99.90;;;;;;5094706;28;20205;-78
2023/03/02 11:21:00;;;;;;;31.08;17.95;;;5.60;99.90;;;;;;5083389;28;20240;-77
2023/03/02 11:23:39;;;;;;;34.20;18.13;;;5.80;99.90;;;;;;5090818;28;20262;-76
2023/03/02 11:26:15;;;;;;;25.15;14.65;;;5.70;99.90;;;;;;5071776;28;20230;-78
2023/03/02 11:28:49;;;;;;;26.80;15.52;;;5.70;99.90;;;;;;5086933;28;20192;-78
2023/03/02 11:31:22;;;;;;;25.70;14.23;;;5.80;99.90;;;;;;5076149;28;20256;-77
2023/03/02 11:34:05;;;;;;;24.83;14.77;;;5.80;99.90;;;;;;5069066;28;20231;-76
2023/03/02 11:36:46;;;;;;;24.45;14.27;;;5.80;99.90;;;;;;5094016;28;20261;-78
2023/03/02 11:39:19;;;;;;;21.80;13.73;;;6.00;99.90;;;;;;5087444;28;20195;-77
2023/03/02 11:41:46;;;;;;;26.30;14.50;;;6.30;99.90;;;;;;5078593;28;20234;-76
2023/03/02 11:44:16;;;;;;;28.73;15.38;;;6.30;99.90;;;;;;5080880;28;20234;-78
2023/03/02 11:46:47;;;;;;;24.70;15.23;;;6.20;99.90;;;;;;5087188;28;20297;-79
2023/03/02 11:49:21;;;;;;;25.70;15.18;;;6.30;99.90;;;;;;5091376;28;20211;-77
2023/03/02 11:51:57;;;;;;;24.63;13.60;;;6.30;99.90;;;;;;5093869;28;20251;-78
2023/03/02 11:54:36;;;;;;;23.67;13.07;;;6.30;99.90;;;;;;5088761;28;20194;-77
2023/03/02 11:57:03;;;;;;;25.33;16.70;;;6.00;99.90;;;;;;5093885;28;20239;-78
2023/03/02 11:59:31;;;;;;;25.67;13.35;;;5.80;99.90;;;;;;5093533;28;20202;-77
2023/03/02 12:02:00;;;;;;;27.40;14.90;;;5.70;99.90;;;;;;5093731;28;20203;-77
2023/03/02 12:04:32;;;;;;;24.75;13.80;;;5.60;99.90;;;;;;5085479;28;20222;-77
2023/03/02 12:07:00;;;;;;;22.65;13.90;;;5.70;99.90;;;;;;5094965;28;20230;-77
2023/03/02 12:09:38;;;;;;;23.73;14.70;;;5.80;99.90;;;;;;5088652;28;20279;-76
2023/03/02 12:12:35;;;;;;;28.70;18.23;;;5.90;99.90;;;;;;5087483;28;20203;-77
2023/03/02 12:15:02;;;;;;;22.40;14.20;;;5.80;99.90;;;;;;5089248;28;20211;-77
2023/03/02 12:17:35;;;;;;;29.08;13.85;;;6.00;99.90;;;;;;5098200;28;20218;-76
2023/03/02 12:20:25;;;;;;;28.33;14.55;;;5.90;99.90;;;;;;5100243;28;20377;-77
2023/03/02 12:22:52;;;;;;;23.77;14.20;;;5.80;99.90;;;;;;5089956;28;20205;-77
2023/03/02 12:25:37;;;;;;;23.25;14.10;;;5.80;99.90;;;;;;5096849;28;20256;-74
2023/03/02 12:28:04;;;;;;;22.67;14.20;;;5.90;99.90;;;;;;5088646;28;20223;-78
2023/03/02 12:30:31;;;;;;;30.10;16.67;;;5.80;99.90;;;;;;5086464;28;20200;-78
2023/03/02 12:33:05;;;;;;;25.15;15.90;;;5.90;99.90;;;;;;5092421;28;20223;-79
2023/03/02 12:35:34;;;;;;;21.08;13.70;;;6.00;99.90;;;;;;5093029;28;20211;-79
2023/03/02 12:38:05;;;;;;;25.10;15.70;;;6.30;99.90;;;;;;5083702;28;20227;-79
2023/03/02 12:40:46;;;;;;;18.42;11.65;;;6.30;99.90;;;;;;5085233;28;20400;-78
2023/03/02 12:43:32;;;;;;;23.23;14.00;;;6.20;99.90;;;;;;5094411;28;20700;-76
2023/03/02 12:46:28;;;;;;;19.75;12.63;;;6.10;99.90;;;;;;5090652;28;20242;-76
2023/03/02 12:49:02;;;;;;;15.98;11.18;;;6.30;99.90;;;;;;5065488;28;20209;-77